createdAt,value
2024-04-12T00:04:31.051Z,90.20
2024-04-12T00:09:34.164Z,90.00
2024-04-12T00:14:38.764Z,91.20
2024-04-12T00:19:41.884Z,91.10
2024-04-12T00:24:46.922Z,90.30
2024-04-12T00:29:50.271Z,91.30
2024-04-12T00:34:53.922Z,90.90
2024-04-12T00:39:57.717Z,90.00
2024-04-12T00:45:03.698Z,91.50
2024-04-12T00:50:08.482Z,90.50
2024-04-12T00:55:13.451Z,90.30
2024-04-12T01:00:30.196Z,90.70
2024-04-12T01:05:34.316Z,91.20
2024-04-12T01:10:38.424Z,90.70
2024-04-12T01:15:41.684Z,90.30
2024-04-12T01:20:45.361Z,91.20
2024-04-12T01:25:49.340Z,92.50
2024-04-12T01:31:01.303Z,91.30
2024-04-12T01:36:12.602Z,90.80
2024-04-12T01:41:15.961Z,90.60
2024-04-12T01:46:19.273Z,89.80
2024-04-12T01:51:26.591Z,89.60
2024-04-12T01:56:31.979Z,89.50
2024-04-12T02:01:36.087Z,89.70
2024-04-12T02:06:43.890Z,90.60
2024-04-12T02:11:48.064Z,91.50
2024-04-12T02:16:52.612Z,92.30
2024-04-12T02:21:55.737Z,91.30
2024-04-12T02:26:59.526Z,90.80
2024-04-12T02:32:02.722Z,90.40
2024-04-12T02:37:08.114Z,90.60
2024-04-12T02:42:19.121Z,92.00
2024-04-12T02:47:22.499Z,93.20
2024-04-12T02:52:26.537Z,92.40
2024-04-12T02:57:30.931Z,92.00
2024-04-12T03:02:34.752Z,91.60
2024-04-12T03:07:39.265Z,91.10
2024-04-12T03:12:44.674Z,90.40
2024-04-12T03:17:49.011Z,90.60
2024-04-12T03:22:53.994Z,91.00
2024-04-12T03:27:58.772Z,91.10
2024-04-12T03:33:04.558Z,90.60
2024-04-12T03:38:26.286Z,90.30
2024-04-12T03:43:29.898Z,90.50
2024-04-12T03:48:34.909Z,90.90
2024-04-12T03:53:38.468Z,91.10
2024-04-12T03:58:43.082Z,91.70
2024-04-12T04:03:50.970Z,92.20
2024-04-12T04:08:54.390Z,91.60
2024-04-12T04:13:57.685Z,92.70
2024-04-12T04:19:01.145Z,91.60
2024-04-12T04:24:10.310Z,90.80
2024-04-12T04:29:13.914Z,90.50
2024-04-12T04:34:21.821Z,90.50
2024-04-12T04:39:26.190Z,90.30
2024-04-12T04:44:31.325Z,90.40
2024-04-12T04:49:34.631Z,90.40
2024-04-12T04:54:40.875Z,91.00
2024-04-12T04:59:46.864Z,90.90
2024-04-12T05:04:51.983Z,90.90
2024-04-12T05:09:55.111Z,90.40
2024-04-12T05:14:58.182Z,90.10
2024-04-12T05:20:01.991Z,90.30
2024-04-12T05:25:06.768Z,89.90
2024-04-12T05:30:10.268Z,89.20
2024-04-12T05:35:16.906Z,88.00
2024-04-12T05:40:23.600Z,87.10
2024-04-12T05:45:28.604Z,86.30
2024-04-12T05:50:32.015Z,85.10
2024-04-12T05:55:35.109Z,83.70
2024-04-12T06:00:42.793Z,82.90
2024-04-12T06:05:57.038Z,82.10
2024-04-12T06:11:00.224Z,80.70
2024-04-12T06:16:03.893Z,79.70
2024-04-12T06:21:12.107Z,79.40
2024-04-12T06:26:16.262Z,77.70
2024-04-12T06:31:21.856Z,76.90
2024-04-12T06:36:26.416Z,77.40
2024-04-12T06:41:31.988Z,74.60
2024-04-12T06:46:37.666Z,74.60
2024-04-12T06:52:01.203Z,74.20
2024-04-12T06:57:06.127Z,72.50
2024-04-12T07:02:15.768Z,71.70
2024-04-12T07:07:24.291Z,72.30
2024-04-12T07:12:29.139Z,71.10
2024-04-12T07:17:33.067Z,71.40
2024-04-12T07:22:36.253Z,70.40
2024-04-12T07:27:42.987Z,71.10
2024-04-12T07:32:46.304Z,69.90
2024-04-12T07:37:49.474Z,67.90
2024-04-12T07:42:53.740Z,68.70
2024-04-12T07:48:13.466Z,67.00
2024-04-12T07:53:23.098Z,66.30
2024-04-12T07:58:36.078Z,64.40
2024-04-12T08:03:40.688Z,65.80
2024-04-12T08:08:47.091Z,63.00
2024-04-12T08:13:51.974Z,59.70
2024-04-12T08:18:59.140Z,57.80
2024-04-12T08:24:11.898Z,57.30
2024-04-12T08:29:30.507Z,55.80
2024-04-12T08:34:35.244Z,58.50
2024-04-12T08:39:44.565Z,52.80
2024-04-12T08:44:49.396Z,53.20
2024-04-12T08:50:05.213Z,51.40
2024-04-12T09:00:19.201Z,49.30
2024-04-12T09:05:26.663Z,48.20
2024-04-12T09:10:38.445Z,47.90
2024-04-12T09:15:43.998Z,44.80
2024-04-12T09:20:54.645Z,45.30
2024-04-12T09:25:59.543Z,44.30
2024-04-12T09:31:21.427Z,44.20
2024-04-12T09:36:58.073Z,44.70
2024-04-12T09:42:05.038Z,43.50
2024-04-12T09:47:19.337Z,41.50
2024-04-12T09:52:41.796Z,41.60
2024-04-12T09:58:06.150Z,41.70
2024-04-12T10:03:31.356Z,42.00
2024-04-12T10:08:53.241Z,42.90
2024-04-12T10:14:16.010Z,40.40
2024-04-12T10:19:37.682Z,36.20
2024-04-12T10:25:08.807Z,35.20
2024-04-12T10:30:30.937Z,37.00
2024-04-12T10:35:53.656Z,36.20
2024-04-12T10:40:59.718Z,38.50
2024-04-12T10:46:06.811Z,36.70
2024-04-12T10:51:14.185Z,35.60
2024-04-12T10:56:21.452Z,38.10
2024-04-12T11:01:25.255Z,33.40
2024-04-12T11:06:35.814Z,40.10
2024-04-12T11:11:40.234Z,37.10
2024-04-12T11:17:07.004Z,38.80
2024-04-12T11:22:31.017Z,35.70
2024-04-12T11:27:52.848Z,34.90
2024-04-12T11:32:57.393Z,38.70
2024-04-12T11:38:01.204Z,37.80
2024-04-12T11:43:08.521Z,37.80
2024-04-12T11:48:16.861Z,37.80
2024-04-12T11:53:21.869Z,38.30
2024-04-12T11:58:25.008Z,41.40
2024-04-12T12:03:28.268Z,36.00
2024-04-12T12:08:38.712Z,40.50
2024-04-12T12:13:43.971Z,37.40
2024-04-12T12:18:47.383Z,40.50
2024-04-12T12:23:51.779Z,37.00
2024-04-12T12:28:59.277Z,37.40
2024-04-12T12:34:06.670Z,37.70
2024-04-12T12:39:11.563Z,37.20
2024-04-12T12:44:19.869Z,38.70
2024-04-12T12:49:26.877Z,40.00
2024-04-12T12:54:30.927Z,39.50
2024-04-12T12:59:42.440Z,39.40
2024-04-12T13:04:49.653Z,38.40
2024-04-12T13:09:57.026Z,38.30
2024-04-12T13:15:00.560Z,39.10
2024-04-12T13:20:08.229Z,41.40
2024-04-12T13:25:15.351Z,40.10
2024-04-12T13:30:18.845Z,41.60
2024-04-12T13:35:22.888Z,40.30
2024-04-12T13:40:26.919Z,37.10
2024-04-12T13:45:49.025Z,39.20
2024-04-12T13:50:58.447Z,39.30
2024-04-12T13:56:21.777Z,40.20
2024-04-12T14:01:30.886Z,40.60
2024-04-12T14:06:36.483Z,39.40
2024-04-12T14:11:40.546Z,40.00
2024-04-12T14:16:43.827Z,39.10
2024-04-12T14:21:53.212Z,39.90
2024-04-12T14:26:56.725Z,40.80
2024-04-12T14:32:07.293Z,40.70
2024-04-12T14:37:15.420Z,41.00
2024-04-12T14:42:22.392Z,38.70
2024-04-12T14:47:27.338Z,42.10
2024-04-12T14:52:31.060Z,43.00
2024-04-12T14:57:34.586Z,42.50
2024-04-12T15:02:42.395Z,41.70
2024-04-12T15:08:04.146Z,41.80
2024-04-12T15:13:25.961Z,40.00
2024-04-12T15:18:47.970Z,42.00
2024-04-12T15:24:09.989Z,40.60
2024-04-12T15:29:31.862Z,42.40
2024-04-12T15:34:54.000Z,42.90
2024-04-12T15:40:16.054Z,43.00
2024-04-12T15:45:38.055Z,44.00
2024-04-12T15:50:45.339Z,43.70
2024-04-12T15:56:02.265Z,45.10
2024-04-12T16:01:24.413Z,44.70
2024-04-12T16:06:46.081Z,46.60
2024-04-12T16:11:49.358Z,46.00
2024-04-12T16:16:52.711Z,45.90
2024-04-12T16:21:55.953Z,46.00
2024-04-12T16:26:59.462Z,46.90
2024-04-12T16:32:03.750Z,47.80
2024-04-12T16:37:07.150Z,47.60
2024-04-12T16:42:10.664Z,49.80
2024-04-12T16:47:14.979Z,49.60
2024-04-12T16:52:18.809Z,50.90
2024-04-12T16:57:21.892Z,51.60
2024-04-12T17:02:25.166Z,54.80
2024-04-12T17:07:28.494Z,54.80
2024-04-12T17:12:31.719Z,60.30
2024-04-12T17:17:37.800Z,63.60
2024-04-12T17:22:41.597Z,65.20
2024-04-12T17:27:45.128Z,66.90
2024-04-12T17:32:48.838Z,65.60
2024-04-12T17:37:52.954Z,67.90
2024-04-12T17:42:56.106Z,69.90
2024-04-12T17:47:59.448Z,68.10
2024-04-12T17:53:03.047Z,69.20
2024-04-12T17:58:07.257Z,72.40
2024-04-12T18:03:10.604Z,71.30
2024-04-12T18:08:13.949Z,71.20
2024-04-12T18:13:17.191Z,71.30
2024-04-12T18:18:20.498Z,71.40
2024-04-12T18:23:23.935Z,72.10
2024-04-12T18:28:27.884Z,73.20
2024-04-12T18:33:33.452Z,74.20
2024-04-12T18:38:55.683Z,74.90
2024-04-12T18:44:18.009Z,74.20
2024-04-12T18:49:21.474Z,75.30
2024-04-12T18:54:25.438Z,74.60
2024-04-12T18:59:29.232Z,75.30
2024-04-12T19:04:32.649Z,75.70
2024-04-12T19:09:35.856Z,76.40
2024-04-12T19:14:40.254Z,76.10
2024-04-12T19:19:43.960Z,76.80
2024-04-12T19:24:47.739Z,75.80
2024-04-12T19:29:53.163Z,76.20
2024-04-12T19:34:56.776Z,78.00
2024-04-12T19:40:00.039Z,77.90
2024-04-12T19:45:03.611Z,78.00
2024-04-12T19:50:08.525Z,78.20
2024-04-12T19:55:13.017Z,78.30
2024-04-12T20:00:16.393Z,78.10
2024-04-12T20:05:19.653Z,78.60
2024-04-12T20:10:23.107Z,78.60
2024-04-12T20:15:31.646Z,78.30
2024-04-12T20:20:36.866Z,77.80
2024-04-12T20:25:40.541Z,77.50
2024-04-12T20:31:00.223Z,77.90
2024-04-12T20:36:19.824Z,79.10
2024-04-12T20:41:23.253Z,77.20
2024-04-12T20:46:26.722Z,77.10
2024-04-12T20:51:31.865Z,78.40
2024-04-12T20:56:35.204Z,78.60
2024-04-12T21:01:49.117Z,78.50
2024-04-12T21:06:54.359Z,79.70
2024-04-12T21:11:58.061Z,79.70
2024-04-12T21:17:02.719Z,79.70
2024-04-12T21:22:05.943Z,79.90
2024-04-12T21:27:09.163Z,79.60
2024-04-12T21:32:12.499Z,79.80
2024-04-12T21:37:15.595Z,81.10
2024-04-12T21:42:18.716Z,79.00
2024-04-12T21:47:21.873Z,79.80
2024-04-12T21:52:25.148Z,78.30
2024-04-12T21:57:28.492Z,76.20
2024-04-12T22:02:31.796Z,75.40
2024-04-12T22:07:34.920Z,75.90
2024-04-12T22:12:38.062Z,75.60
2024-04-12T22:17:41.276Z,76.00
2024-04-12T22:22:44.513Z,77.40
2024-04-12T22:27:47.642Z,78.20
2024-04-12T22:32:51.217Z,78.60
2024-04-12T22:37:54.401Z,78.90
2024-04-12T22:43:00.711Z,78.70
2024-04-12T22:48:04.264Z,80.10
2024-04-12T22:53:08.722Z,79.80
2024-04-12T22:58:14.950Z,80.40
2024-04-12T23:03:19.452Z,80.70
2024-04-12T23:08:22.873Z,81.00
2024-04-12T23:13:26.048Z,81.60
2024-04-12T23:18:29.239Z,82.00
2024-04-12T23:23:32.347Z,82.50
2024-04-12T23:28:35.640Z,84.20
2024-04-12T23:33:39.023Z,84.50
2024-04-12T23:38:42.174Z,84.30
2024-04-12T23:43:45.263Z,84.50
2024-04-12T23:48:48.879Z,84.80
2024-04-12T23:53:52.073Z,85.00
2024-04-12T23:58:55.165Z,85.30
